createdAt,value
2022-11-16T00:01:15.114Z,100.00
2022-11-16T00:03:43.261Z,100.00
2022-11-16T00:06:11.425Z,100.00
2022-11-16T00:08:41.145Z,100.00
2022-11-16T00:11:12.817Z,100.00
2022-11-16T00:13:41.071Z,100.00
2022-11-16T00:16:09.229Z,100.00
2022-11-16T00:18:37.179Z,100.00
2022-11-16T00:21:06.375Z,100.00
2022-11-16T00:23:36.257Z,100.00
2022-11-16T00:26:05.858Z,100.00
2022-11-16T00:28:35.385Z,100.00
2022-11-16T00:31:05.048Z,100.00
2022-11-16T00:33:33.026Z,100.00
2022-11-16T00:36:01.997Z,100.00
2022-11-16T00:38:30.099Z,100.00
2022-11-16T00:40:58.146Z,100.00
2022-11-16T00:43:26.075Z,100.00
2022-11-16T00:45:55.429Z,100.00
2022-11-16T00:48:23.419Z,100.00
2022-11-16T00:50:51.373Z,100.00
2022-11-16T00:53:19.947Z,100.00
2022-11-16T00:55:48.493Z,100.00
2022-11-16T00:58:16.568Z,100.00
2022-11-16T01:00:44.524Z,100.00
2022-11-16T01:03:13.871Z,100.00
2022-11-16T01:05:41.819Z,100.00
2022-11-16T01:08:09.762Z,100.00
2022-11-16T01:10:39.477Z,100.00
2022-11-16T01:13:06.389Z,100.00
2022-11-16T01:15:34.301Z,100.00
2022-11-16T01:18:02.203Z,100.00
2022-11-16T01:20:31.526Z,100.00
2022-11-16T01:22:59.485Z,100.00
2022-11-16T01:25:27.470Z,100.00
2022-11-16T01:27:55.429Z,100.00
2022-11-16T01:30:23.359Z,100.00
2022-11-16T01:32:51.458Z,100.00
2022-11-16T01:35:19.720Z,100.00
2022-11-16T01:37:49.081Z,100.00
2022-11-16T01:40:16.990Z,100.00
2022-11-16T01:42:44.948Z,100.00
2022-11-16T01:45:20.395Z,100.00
2022-11-16T01:47:48.357Z,100.00
2022-11-16T01:50:18.256Z,100.00
2022-11-16T01:52:52.472Z,100.00
2022-11-16T01:55:20.632Z,100.00
2022-11-16T01:57:48.590Z,100.00
2022-11-16T02:00:17.681Z,100.00
2022-11-16T02:02:45.692Z,100.00
2022-11-16T02:05:14.208Z,100.00
2022-11-16T02:08:11.029Z,100.00
2022-11-16T02:10:47.899Z,100.00
2022-11-16T02:13:22.622Z,100.00
2022-11-16T02:15:53.023Z,100.00
2022-11-16T02:18:25.868Z,100.00
2022-11-16T02:21:01.765Z,100.00
2022-11-16T02:23:55.987Z,100.00
2022-11-16T02:26:33.707Z,100.00
2022-11-16T02:29:17.433Z,100.00
2022-11-16T02:31:47.410Z,100.00
2022-11-16T02:34:15.471Z,100.00
2022-11-16T02:36:43.447Z,100.00
2022-11-16T02:39:13.317Z,100.00
2022-11-16T02:41:42.354Z,100.00
2022-11-16T02:44:13.266Z,100.00
2022-11-16T02:46:42.809Z,100.00
2022-11-16T02:49:11.911Z,100.00
2022-11-16T02:51:40.061Z,100.00
2022-11-16T02:54:12.784Z,100.00
2022-11-16T02:56:44.970Z,100.00
2022-11-16T02:59:17.634Z,100.00
2022-11-16T03:01:47.729Z,100.00
2022-11-16T03:04:17.491Z,100.00
2022-11-16T03:06:45.481Z,100.00
2022-11-16T03:09:14.461Z,100.00
2022-11-16T03:12:06.564Z,100.00
2022-11-16T03:14:37.276Z,100.00
2022-11-16T03:17:06.906Z,100.00
2022-11-16T03:19:36.543Z,100.00
2022-11-16T03:22:07.498Z,100.00
2022-11-16T03:24:35.437Z,100.00
2022-11-16T03:27:06.375Z,100.00
2022-11-16T03:29:37.669Z,100.00
2022-11-16T03:32:06.678Z,100.00
2022-11-16T03:34:34.735Z,100.00
2022-11-16T03:37:02.672Z,100.00
2022-11-16T03:39:32.420Z,100.00
2022-11-16T03:42:00.985Z,100.00
2022-11-16T03:44:28.912Z,100.00
2022-11-16T03:46:58.453Z,100.00
2022-11-16T03:49:26.439Z,100.00
2022-11-16T03:51:54.377Z,100.00
2022-11-16T03:54:22.411Z,100.00
2022-11-16T03:56:50.343Z,100.00
2022-11-16T03:59:18.293Z,100.00
2022-11-16T04:01:46.243Z,100.00
2022-11-16T04:04:29.676Z,100.00
2022-11-16T04:07:14.719Z,100.00
2022-11-16T04:09:59.872Z,100.00
2022-11-16T04:12:44.571Z,100.00
2022-11-16T04:15:30.083Z,100.00
2022-11-16T04:18:15.544Z,100.00
2022-11-16T04:21:02.414Z,100.00
2022-11-16T04:23:47.771Z,100.00
2022-11-16T04:26:15.684Z,100.00
2022-11-16T04:28:42.726Z,100.00
2022-11-16T04:31:27.801Z,100.00
2022-11-16T04:34:13.277Z,100.00
2022-11-16T04:36:59.861Z,100.00
2022-11-16T04:39:27.793Z,100.00
2022-11-16T04:42:13.359Z,100.00
2022-11-16T04:44:58.540Z,100.00
2022-11-16T04:47:26.457Z,100.00
2022-11-16T04:49:54.391Z,100.00
2022-11-16T04:52:23.644Z,100.00
2022-11-16T04:54:51.554Z,100.00
2022-11-16T04:57:19.483Z,100.00
2022-11-16T04:59:47.388Z,100.00
2022-11-16T05:02:15.416Z,100.00
2022-11-16T05:04:43.957Z,100.00
2022-11-16T05:07:12.804Z,100.00
2022-11-16T05:09:43.143Z,100.00
2022-11-16T05:12:11.365Z,100.00
2022-11-16T05:14:39.285Z,100.00
2022-11-16T05:17:07.205Z,100.00
2022-11-16T05:20:07.115Z,100.00
2022-11-16T05:22:35.176Z,100.00
2022-11-16T05:25:04.737Z,100.00
2022-11-16T05:27:32.746Z,100.00
2022-11-16T05:30:00.682Z,100.00
2022-11-16T05:32:29.192Z,100.00
2022-11-16T05:34:57.219Z,100.00
2022-11-16T05:37:26.686Z,100.00
2022-11-16T05:39:54.681Z,100.00
2022-11-16T05:42:24.113Z,100.00
2022-11-16T05:44:52.044Z,100.00
2022-11-16T05:47:19.967Z,100.00
2022-11-16T05:49:47.869Z,100.00
2022-11-16T05:52:15.794Z,100.00
2022-11-16T05:54:43.678Z,100.00
2022-11-16T05:57:11.643Z,100.00
2022-11-16T05:59:40.973Z,100.00
2022-11-16T06:02:08.936Z,100.00
2022-11-16T06:04:36.866Z,100.00
2022-11-16T06:07:04.864Z,100.00
2022-11-16T06:09:32.817Z,100.00
2022-11-16T06:12:00.748Z,100.00
2022-11-16T06:14:28.677Z,100.00
2022-11-16T06:16:58.016Z,100.00
2022-11-16T06:19:31.040Z,100.00
2022-11-16T06:22:00.200Z,100.00
2022-11-16T06:24:28.134Z,100.00
2022-11-16T06:26:56.056Z,100.00
2022-11-16T06:29:23.997Z,100.00
2022-11-16T06:31:51.924Z,100.00
2022-11-16T06:34:21.232Z,100.00
2022-11-16T06:36:49.369Z,100.00
2022-11-16T06:39:17.285Z,100.00
2022-11-16T06:41:45.266Z,100.00
2022-11-16T06:44:13.201Z,100.00
2022-11-16T06:46:41.110Z,100.00
2022-11-16T06:49:09.239Z,100.00
2022-11-16T06:51:38.513Z,100.00
2022-11-16T06:56:52.586Z,100.00
2022-11-16T06:59:20.495Z,100.00
2022-11-16T07:01:48.511Z,100.00
2022-11-16T07:04:16.470Z,100.00
2022-11-16T07:06:45.968Z,100.00
2022-11-16T07:09:15.297Z,100.00
2022-11-16T07:11:43.342Z,100.00
2022-11-16T07:14:11.876Z,100.00
2022-11-16T07:16:39.774Z,100.00
2022-11-16T07:19:07.822Z,100.00
2022-11-16T07:21:35.754Z,100.00
2022-11-16T07:24:05.285Z,100.00
2022-11-16T07:26:33.749Z,100.00
2022-11-16T07:29:01.742Z,100.00
2022-11-16T07:31:29.702Z,100.00
2022-11-16T07:33:57.644Z,100.00
2022-11-16T07:36:26.032Z,100.00
2022-11-16T07:38:54.305Z,100.00
2022-11-16T07:41:23.566Z,100.00
2022-11-16T07:43:53.379Z,100.00
2022-11-16T07:49:14.973Z,100.00
2022-11-16T07:51:42.931Z,100.00
2022-11-16T07:54:13.035Z,100.00
2022-11-16T07:56:42.334Z,100.00
2022-11-16T07:59:10.289Z,100.00
2022-11-16T08:01:38.323Z,100.00
2022-11-16T08:04:06.263Z,100.00
2022-11-16T08:06:34.219Z,100.00
2022-11-16T08:09:02.190Z,100.00
2022-11-16T08:11:30.125Z,100.00
2022-11-16T08:13:59.449Z,100.00
2022-11-16T08:16:27.353Z,100.00
2022-11-16T08:18:55.299Z,100.00
2022-11-16T08:21:23.264Z,100.00
2022-11-16T08:23:55.351Z,100.00
2022-11-16T08:26:26.165Z,100.00
2022-11-16T08:28:54.183Z,100.00
2022-11-16T08:31:25.117Z,100.00
2022-11-16T08:33:53.115Z,100.00
2022-11-16T08:36:21.185Z,100.00
2022-11-16T08:38:49.711Z,100.00
2022-11-16T08:41:17.802Z,100.00
2022-11-16T08:43:47.241Z,100.00
2022-11-16T08:46:15.525Z,100.00
2022-11-16T08:48:46.006Z,100.00
2022-11-16T08:54:00.212Z,100.00
2022-11-16T08:56:30.099Z,100.00
2022-11-16T08:58:59.125Z,100.00
2022-11-16T09:01:28.392Z,100.00
2022-11-16T09:03:57.825Z,100.00
2022-11-16T09:06:26.572Z,100.00
2022-11-16T09:08:54.548Z,100.00
2022-11-16T09:11:23.650Z,100.00
2022-11-16T09:16:37.987Z,100.00
2022-11-16T09:19:07.306Z,100.00
2022-11-16T09:21:36.470Z,100.00
2022-11-16T09:24:04.563Z,100.00
2022-11-16T09:26:32.604Z,100.00
2022-11-16T09:29:01.179Z,100.00
2022-11-16T09:31:29.531Z,100.00
2022-11-16T09:33:58.806Z,100.00
2022-11-16T09:36:28.552Z,100.00
2022-11-16T09:39:23.837Z,100.00
2022-11-16T09:41:53.969Z,100.00
2022-11-16T09:44:33.357Z,100.00
2022-11-16T09:47:01.491Z,100.00
2022-11-16T09:49:31.240Z,99.17
2022-11-16T09:54:46.983Z,94.83
2022-11-16T09:57:16.556Z,96.19
2022-11-16T09:59:45.502Z,94.93
2022-11-16T10:02:19.357Z,94.66
2022-11-16T10:04:56.699Z,90.51
2022-11-16T10:07:29.044Z,85.45
2022-11-16T10:09:57.100Z,83.13
2022-11-16T10:12:26.068Z,80.28
2022-11-16T10:15:15.516Z,76.84
2022-11-16T10:18:04.670Z,73.42
2022-11-16T10:20:48.925Z,72.09
2022-11-16T10:23:22.902Z,69.32
2022-11-16T10:25:54.374Z,68.83
2022-11-16T10:28:42.053Z,72.55
2022-11-16T10:31:14.775Z,74.01
2022-11-16T10:33:42.949Z,76.60
2022-11-16T10:36:12.674Z,79.95
2022-11-16T10:38:42.106Z,83.14
2022-11-16T10:41:18.859Z,80.95
2022-11-16T10:43:46.846Z,76.52
2022-11-16T10:46:16.743Z,72.98
2022-11-16T10:48:49.225Z,71.54
2022-11-16T10:51:17.151Z,75.25
2022-11-16T10:53:46.453Z,79.73
2022-11-16T10:56:20.560Z,81.27
2022-11-16T10:58:56.006Z,80.97
2022-11-16T11:01:30.118Z,81.00
2022-11-16T11:03:58.490Z,79.47
2022-11-16T11:06:26.863Z,77.90
2022-11-16T11:08:56.269Z,73.36
2022-11-16T11:11:50.347Z,73.38
2022-11-16T11:14:18.270Z,66.12
2022-11-16T11:16:46.181Z,66.72
2022-11-16T11:19:21.132Z,65.00
2022-11-16T11:21:50.175Z,64.80
2022-11-16T11:27:07.474Z,57.51
2022-11-16T11:29:37.576Z,57.86
2022-11-16T11:32:06.388Z,61.43
2022-11-16T11:34:36.289Z,65.83
2022-11-16T11:37:04.555Z,69.88
2022-11-16T11:42:22.712Z,81.16
2022-11-16T11:44:57.609Z,85.36
2022-11-16T11:47:58.604Z,86.96
2022-11-16T11:50:28.337Z,90.77
2022-11-16T11:53:02.140Z,92.31
2022-11-16T11:55:31.521Z,95.12
2022-11-16T11:57:59.498Z,97.47
2022-11-16T12:00:27.494Z,98.78
2022-11-16T12:03:41.385Z,98.96
2022-11-16T12:06:11.243Z,100.00
2022-11-16T12:08:50.100Z,100.00
2022-11-16T12:11:23.138Z,100.00
2022-11-16T12:14:01.597Z,100.00
2022-11-16T12:16:33.102Z,100.00
2022-11-16T12:19:26.393Z,100.00
2022-11-16T12:22:00.275Z,100.00
2022-11-16T12:24:39.482Z,100.00
2022-11-16T12:27:14.281Z,100.00
2022-11-16T12:29:45.629Z,100.00
2022-11-16T12:32:26.015Z,100.00
2022-11-16T12:35:12.169Z,100.00
2022-11-16T12:37:43.601Z,100.00
2022-11-16T12:40:23.886Z,100.00
2022-11-16T12:42:54.308Z,100.00
2022-11-16T12:45:33.373Z,100.00
2022-11-16T12:48:18.710Z,100.00
2022-11-16T12:50:51.559Z,100.00
2022-11-16T12:53:33.419Z,100.00
2022-11-16T12:56:03.538Z,100.00
2022-11-16T12:58:40.599Z,100.00
2022-11-16T13:01:11.310Z,100.00
2022-11-16T13:03:42.685Z,100.00
2022-11-16T13:06:13.434Z,100.00
2022-11-16T13:08:51.183Z,100.00
2022-11-16T13:11:22.517Z,100.00
2022-11-16T13:13:53.856Z,100.00
2022-11-16T13:16:22.248Z,100.00
2022-11-16T13:18:50.222Z,100.00
2022-11-16T13:21:26.755Z,100.00
2022-11-16T13:24:01.538Z,100.00
2022-11-16T13:26:31.334Z,100.00
2022-11-16T13:29:03.106Z,100.00
2022-11-16T13:31:34.580Z,100.00
2022-11-16T13:34:02.889Z,100.00
2022-11-16T13:36:47.703Z,100.00
2022-11-16T13:39:21.931Z,100.00
2022-11-16T13:41:50.798Z,100.00
2022-11-16T13:44:30.355Z,100.00
2022-11-16T13:47:04.352Z,100.00
2022-11-16T13:49:34.263Z,100.00
2022-11-16T13:52:21.982Z,100.00
2022-11-16T13:54:52.604Z,100.00
2022-11-16T13:57:23.704Z,100.00
2022-11-16T13:59:57.265Z,100.00
2022-11-16T14:02:30.483Z,100.00
2022-11-16T14:04:59.599Z,100.00
2022-11-16T14:07:33.186Z,100.00
2022-11-16T14:10:01.258Z,100.00
2022-11-16T14:12:59.255Z,100.00
2022-11-16T14:15:30.074Z,100.00
2022-11-16T14:18:00.029Z,100.00
2022-11-16T14:21:00.246Z,100.00
2022-11-16T14:23:37.127Z,100.00
2022-11-16T14:26:11.865Z,100.00
2022-11-16T14:28:44.638Z,100.00
2022-11-16T14:31:24.631Z,100.00
2022-11-16T14:33:53.622Z,100.00
2022-11-16T14:36:36.197Z,100.00
2022-11-16T14:39:16.521Z,100.00
2022-11-16T14:41:45.021Z,100.00
2022-11-16T14:44:12.961Z,100.00
2022-11-16T14:46:42.273Z,100.00
2022-11-16T14:49:12.119Z,100.00
2022-11-16T14:51:42.722Z,100.00
2022-11-16T14:54:14.312Z,100.00
2022-11-16T14:56:56.746Z,100.00
2022-11-16T14:59:24.780Z,100.00
2022-11-16T15:01:54.170Z,100.00
2022-11-16T15:04:22.508Z,100.00
2022-11-16T15:06:51.401Z,100.00
2022-11-16T15:09:22.418Z,100.00
2022-11-16T15:12:08.308Z,100.00
2022-11-16T15:14:39.390Z,100.00
2022-11-16T15:17:08.736Z,100.00
2022-11-16T15:19:36.665Z,100.00
2022-11-16T15:22:05.322Z,100.00
2022-11-16T15:24:33.989Z,100.00
2022-11-16T15:27:11.656Z,100.00
2022-11-16T15:29:39.592Z,100.00
2022-11-16T15:32:14.273Z,100.00
2022-11-16T15:34:42.191Z,100.00
2022-11-16T15:37:12.358Z,100.00
2022-11-16T15:39:40.261Z,100.00
2022-11-16T15:42:09.802Z,100.00
2022-11-16T15:44:38.850Z,100.00
2022-11-16T15:47:06.848Z,100.00
2022-11-16T15:49:37.410Z,100.00
2022-11-16T15:52:05.738Z,100.00
2022-11-16T15:54:54.581Z,100.00
2022-11-16T15:57:23.285Z,100.00
2022-11-16T15:59:54.549Z,100.00
2022-11-16T16:02:23.493Z,100.00
2022-11-16T16:04:52.799Z,100.00
2022-11-16T16:07:38.530Z,100.00
2022-11-16T16:10:14.064Z,100.00
2022-11-16T16:12:48.236Z,100.00
2022-11-16T16:15:23.911Z,100.00
2022-11-16T16:17:51.884Z,100.00
2022-11-16T16:20:21.899Z,100.00
2022-11-16T16:22:49.814Z,100.00
2022-11-16T16:25:28.406Z,100.00
2022-11-16T16:27:56.343Z,100.00
2022-11-16T16:30:24.450Z,100.00
2022-11-16T16:32:52.956Z,100.00
2022-11-16T16:35:22.986Z,100.00
2022-11-16T16:37:51.847Z,100.00
2022-11-16T16:40:19.954Z,100.00
2022-11-16T16:42:48.704Z,100.00
2022-11-16T16:45:18.065Z,100.00
2022-11-16T16:47:45.980Z,100.00
2022-11-16T16:50:13.910Z,100.00
2022-11-16T16:52:43.196Z,100.00
2022-11-16T16:55:11.121Z,100.00
2022-11-16T16:57:39.026Z,100.00
2022-11-16T17:00:08.048Z,100.00
2022-11-16T17:02:37.401Z,100.00
2022-11-16T17:05:05.725Z,100.00
2022-11-16T17:07:33.681Z,100.00
2022-11-16T17:10:02.994Z,100.00
2022-11-16T17:12:30.915Z,100.00
2022-11-16T17:14:58.816Z,100.00
2022-11-16T17:17:26.771Z,100.00
2022-11-16T17:19:54.703Z,100.00
2022-11-16T17:22:22.682Z,100.00
2022-11-16T17:24:50.633Z,100.00
2022-11-16T17:27:19.941Z,100.00
2022-11-16T17:29:47.850Z,100.00
2022-11-16T17:32:15.754Z,100.00
2022-11-16T17:34:43.674Z,100.00
2022-11-16T17:37:11.624Z,100.00
2022-11-16T17:39:39.521Z,100.00
2022-11-16T17:42:07.526Z,100.00
2022-11-16T17:44:36.841Z,100.00
2022-11-16T17:47:04.805Z,100.00
2022-11-16T17:49:32.708Z,100.00
2022-11-16T17:52:01.726Z,100.00
2022-11-16T17:54:29.648Z,100.00
2022-11-16T17:56:57.583Z,100.00
2022-11-16T17:59:29.437Z,100.00
2022-11-16T18:01:59.325Z,100.00
2022-11-16T18:04:27.258Z,100.00
2022-11-16T18:06:56.044Z,100.00
2022-11-16T18:09:24.191Z,100.00
2022-11-16T18:11:52.130Z,100.00
2022-11-16T18:14:20.061Z,100.00
2022-11-16T18:16:48.035Z,100.00
2022-11-16T18:19:18.404Z,100.00
2022-11-16T18:21:48.166Z,100.00
2022-11-16T18:24:16.088Z,100.00
2022-11-16T18:26:44.080Z,100.00
2022-11-16T18:29:15.857Z,100.00
2022-11-16T18:31:43.896Z,100.00
2022-11-16T18:34:13.314Z,100.00
2022-11-16T18:36:42.692Z,100.00
2022-11-16T18:39:10.618Z,100.00
2022-11-16T18:41:38.619Z,100.00
2022-11-16T18:44:07.926Z,100.00
2022-11-16T18:46:35.850Z,100.00
2022-11-16T18:49:03.789Z,100.00
2022-11-16T18:51:31.903Z,100.00
2022-11-16T18:54:01.226Z,100.00
2022-11-16T18:56:29.135Z,100.00
2022-11-16T18:58:57.070Z,100.00
2022-11-16T19:01:26.231Z,100.00
2022-11-16T19:03:54.344Z,100.00
2022-11-16T19:06:22.245Z,100.00
2022-11-16T19:08:56.223Z,100.00
2022-11-16T19:11:25.996Z,100.00
2022-11-16T19:13:54.646Z,100.00
2022-11-16T19:16:22.691Z,100.00
2022-11-16T19:18:50.605Z,100.00
2022-11-16T19:21:19.414Z,100.00
2022-11-16T19:23:48.021Z,100.00
2022-11-16T19:26:17.084Z,100.00
2022-11-16T19:28:47.031Z,100.00
2022-11-16T19:31:16.040Z,100.00
2022-11-16T19:33:44.430Z,100.00
2022-11-16T19:36:13.265Z,100.00
2022-11-16T19:38:41.255Z,100.00
2022-11-16T19:41:09.206Z,100.00
2022-11-16T19:43:37.430Z,100.00
2022-11-16T19:46:07.971Z,100.00
2022-11-16T19:48:35.992Z,100.00
2022-11-16T19:51:07.782Z,100.00
2022-11-16T19:53:36.033Z,100.00
2022-11-16T19:56:04.356Z,100.00
2022-11-16T19:58:33.006Z,100.00
2022-11-16T20:01:04.098Z,100.00
2022-11-16T20:03:33.760Z,100.00
2022-11-16T20:06:09.824Z,100.00
2022-11-16T20:08:37.754Z,100.00
2022-11-16T20:11:12.025Z,100.00
2022-11-16T20:13:39.984Z,100.00
2022-11-16T20:16:09.607Z,100.00
2022-11-16T20:18:38.881Z,100.00
2022-11-16T20:21:07.444Z,100.00
2022-11-16T20:23:35.637Z,100.00
2022-11-16T20:26:07.292Z,100.00
2022-11-16T20:28:36.274Z,100.00
2022-11-16T20:31:05.397Z,100.00
2022-11-16T20:33:34.443Z,100.00
2022-11-16T20:36:04.443Z,100.00
2022-11-16T20:38:33.406Z,100.00
2022-11-16T20:41:08.865Z,100.00
2022-11-16T20:43:39.276Z,100.00
2022-11-16T20:46:07.575Z,100.00
2022-11-16T20:48:35.563Z,100.00
2022-11-16T20:51:05.150Z,100.00
2022-11-16T20:53:33.573Z,100.00
2022-11-16T20:56:02.566Z,100.00
2022-11-16T20:58:30.603Z,100.00
2022-11-16T21:01:00.888Z,100.00
2022-11-16T21:03:29.048Z,100.00
2022-11-16T21:05:56.974Z,100.00
2022-11-16T21:08:26.561Z,100.00
2022-11-16T21:10:54.501Z,100.00
2022-11-16T21:13:39.836Z,100.00
2022-11-16T21:16:08.632Z,100.00
2022-11-16T21:18:36.562Z,100.00
2022-11-16T21:21:05.571Z,100.00
2022-11-16T21:23:35.635Z,100.00
2022-11-16T21:26:03.942Z,100.00
2022-11-16T21:28:31.876Z,100.00
2022-11-16T21:31:00.421Z,100.00
2022-11-16T21:33:28.496Z,100.00
2022-11-16T21:35:56.426Z,100.00
2022-11-16T21:38:25.369Z,100.00
2022-11-16T21:40:54.690Z,100.00
2022-11-16T21:43:22.615Z,100.00
2022-11-16T21:45:51.108Z,100.00
2022-11-16T21:48:19.136Z,100.00
2022-11-16T21:50:47.071Z,100.00
2022-11-16T21:53:15.001Z,100.00
2022-11-16T21:55:42.921Z,100.00
2022-11-16T21:58:12.239Z,100.00
2022-11-16T22:00:40.156Z,100.00
2022-11-16T22:03:08.077Z,100.00
2022-11-16T22:05:53.531Z,100.00
2022-11-16T22:08:21.465Z,100.00
2022-11-16T22:10:51.025Z,100.00
2022-11-16T22:13:20.543Z,100.00
2022-11-16T22:15:48.510Z,100.00
2022-11-16T22:18:16.477Z,100.00
2022-11-16T22:20:47.826Z,100.00
2022-11-16T22:23:21.457Z,100.00
2022-11-16T22:25:50.631Z,100.00
2022-11-16T22:28:21.177Z,100.00
2022-11-16T22:30:52.027Z,100.00
2022-11-16T22:33:20.465Z,100.00
2022-11-16T22:35:48.405Z,100.00
2022-11-16T22:38:16.318Z,100.00
2022-11-16T22:40:49.903Z,100.00
2022-11-16T22:43:17.826Z,100.00
2022-11-16T22:45:47.136Z,100.00
2022-11-16T22:48:15.150Z,100.00
2022-11-16T22:50:43.159Z,100.00
2022-11-16T22:53:11.186Z,100.00
2022-11-16T22:55:39.308Z,100.00
2022-11-16T22:58:07.212Z,100.00
2022-11-16T23:00:40.678Z,100.00
2022-11-16T23:03:11.388Z,100.00
2022-11-16T23:05:39.337Z,100.00
2022-11-16T23:08:07.234Z,100.00
2022-11-16T23:10:55.265Z,100.00
2022-11-16T23:13:40.461Z,100.00
2022-11-16T23:16:08.890Z,100.00
2022-11-16T23:18:38.191Z,100.00
2022-11-16T23:21:23.552Z,100.00
2022-11-16T23:24:20.185Z,100.00
2022-11-16T23:27:19.832Z,100.00
2022-11-16T23:29:47.859Z,100.00
2022-11-16T23:32:15.822Z,100.00
2022-11-16T23:34:45.156Z,100.00
2022-11-16T23:37:13.077Z,100.00
2022-11-16T23:39:41.008Z,100.00
2022-11-16T23:42:26.579Z,100.00
2022-11-16T23:44:54.475Z,100.00
2022-11-16T23:47:22.400Z,100.00
2022-11-16T23:49:51.696Z,100.00
2022-11-16T23:52:19.600Z,100.00
2022-11-16T23:54:47.520Z,100.00
2022-11-16T23:57:15.462Z,100.00
2022-11-16T23:59:43.311Z,100.00
